createdAt,value
2023-08-24T00:00:48.424Z,18.38
2023-08-24T00:03:35.696Z,18.08
2023-08-24T00:06:05.647Z,17.80
2023-08-24T00:08:32.927Z,14.98
2023-08-24T00:11:00.368Z,15.13
2023-08-24T00:13:27.512Z,15.80
2023-08-24T00:15:57.935Z,15.63
2023-08-24T00:18:26.010Z,16.00
2023-08-24T00:21:02.077Z,19.20
2023-08-24T00:23:31.703Z,14.82
2023-08-24T00:25:59.076Z,17.98
2023-08-24T00:28:28.845Z,15.70
2023-08-24T00:30:56.238Z,17.58
2023-08-24T00:33:23.845Z,14.80
2023-08-24T00:35:51.373Z,15.52
2023-08-24T00:38:18.546Z,16.15
2023-08-24T00:40:46.036Z,17.77
2023-08-24T00:43:15.470Z,17.98
2023-08-24T00:45:43.154Z,16.83
2023-08-24T00:48:12.806Z,16.25
2023-08-24T00:50:42.894Z,15.15
2023-08-24T00:53:11.604Z,17.85
2023-08-24T00:55:42.219Z,14.52
2023-08-24T00:58:09.492Z,15.38
2023-08-24T01:00:37.328Z,20.65
2023-08-24T01:03:05.122Z,13.43
2023-08-24T01:05:34.931Z,17.00
2023-08-24T01:08:02.193Z,15.02
2023-08-24T01:10:56.611Z,14.63
2023-08-24T01:13:38.044Z,13.68
2023-08-24T01:16:13.008Z,14.52
2023-08-24T01:18:41.857Z,15.90
2023-08-24T01:21:09.920Z,13.32
2023-08-24T01:23:55.217Z,16.48
2023-08-24T01:26:22.864Z,15.45
2023-08-24T01:28:50.861Z,17.48
2023-08-24T01:31:23.168Z,19.67
2023-08-24T01:33:50.426Z,18.98
2023-08-24T01:36:17.851Z,18.35
2023-08-24T01:38:51.188Z,20.33
2023-08-24T01:41:29.220Z,18.23
2023-08-24T01:43:58.396Z,19.40
2023-08-24T01:46:29.664Z,17.85
2023-08-24T01:49:02.083Z,17.30
2023-08-24T01:51:29.618Z,15.88
2023-08-24T01:53:57.492Z,16.48
2023-08-24T01:56:24.963Z,17.42
2023-08-24T01:58:54.685Z,18.77
2023-08-24T02:01:24.342Z,15.88
2023-08-24T02:03:55.953Z,16.65
2023-08-24T02:06:23.469Z,14.60
2023-08-24T02:08:53.063Z,14.13
2023-08-24T02:11:20.517Z,16.95
2023-08-24T02:13:50.096Z,18.63
2023-08-24T02:16:17.600Z,12.68
2023-08-24T02:18:47.006Z,14.25
2023-08-24T02:21:16.873Z,14.77
2023-08-24T02:23:43.978Z,15.77
2023-08-24T02:26:11.421Z,15.13
2023-08-24T02:28:39.266Z,20.08
2023-08-24T02:31:09.383Z,16.13
2023-08-24T02:33:37.285Z,18.23
2023-08-24T02:36:04.967Z,18.50
2023-08-24T02:38:34.388Z,18.63
2023-08-24T02:41:06.221Z,19.05
2023-08-24T02:43:36.863Z,20.13
2023-08-24T02:46:09.407Z,18.38
2023-08-24T02:48:38.738Z,19.90
2023-08-24T02:51:11.465Z,22.42
2023-08-24T02:53:38.640Z,17.95
2023-08-24T02:56:08.328Z,20.42
2023-08-24T02:58:35.570Z,24.98
2023-08-24T03:01:06.420Z,24.10
2023-08-24T03:03:33.719Z,20.80
2023-08-24T03:06:05.429Z,22.77
2023-08-24T03:08:33.641Z,25.30
2023-08-24T03:11:02.004Z,23.13
2023-08-24T03:13:29.995Z,21.25
2023-08-24T03:15:57.907Z,26.13
2023-08-24T03:18:25.146Z,26.70
2023-08-24T03:20:52.573Z,24.77
2023-08-24T03:23:19.793Z,24.38
2023-08-24T03:25:47.230Z,27.30
2023-08-24T03:28:16.681Z,24.90
2023-08-24T03:30:49.277Z,32.95
2023-08-24T03:33:16.621Z,25.83
2023-08-24T03:35:45.017Z,26.92
2023-08-24T03:38:14.867Z,27.23
2023-08-24T03:40:42.436Z,27.88
2023-08-24T03:43:12.494Z,26.02
2023-08-24T03:45:43.442Z,26.92
2023-08-24T03:48:12.561Z,27.33
2023-08-24T03:50:39.992Z,23.90
2023-08-24T03:53:07.765Z,25.05
2023-08-24T03:55:35.213Z,25.73
2023-08-24T03:58:17.360Z,25.27
2023-08-24T04:00:49.273Z,28.48
2023-08-24T04:03:16.582Z,25.17
2023-08-24T04:05:44.116Z,26.60
2023-08-24T04:08:11.289Z,29.50
2023-08-24T04:10:38.922Z,27.45
2023-08-24T04:13:06.073Z,31.50
2023-08-24T04:15:33.508Z,28.25
2023-08-24T04:18:00.731Z,26.77
2023-08-24T04:20:28.164Z,24.35
2023-08-24T04:22:57.410Z,23.77
2023-08-24T04:25:25.013Z,22.90
2023-08-24T04:27:52.586Z,21.75
2023-08-24T04:30:25.697Z,22.83
2023-08-24T04:32:52.849Z,21.65
2023-08-24T04:35:20.370Z,20.23
2023-08-24T04:37:49.784Z,18.98
2023-08-24T04:40:19.616Z,17.35
2023-08-24T04:42:51.483Z,17.80
2023-08-24T04:45:21.147Z,17.67
2023-08-24T04:47:51.056Z,17.75
2023-08-24T04:50:18.702Z,16.88
2023-08-24T04:52:45.751Z,14.52
2023-08-24T04:55:17.956Z,15.60
2023-08-24T04:57:48.813Z,16.92
2023-08-24T05:00:17.154Z,14.07
2023-08-24T05:02:44.464Z,15.45
2023-08-24T05:05:16.611Z,20.65
2023-08-24T05:07:45.932Z,17.63
2023-08-24T05:10:13.457Z,14.13
2023-08-24T05:12:42.704Z,16.20
2023-08-24T05:15:11.906Z,16.35
2023-08-24T05:17:39.085Z,14.80
2023-08-24T05:20:07.918Z,15.45
2023-08-24T05:22:35.410Z,15.68
2023-08-24T05:25:02.984Z,28.63
2023-08-24T05:27:30.183Z,27.13
2023-08-24T05:29:57.683Z,18.45
2023-08-24T05:32:27.594Z,15.50
2023-08-24T05:34:55.016Z,16.35
2023-08-24T05:37:24.850Z,15.80
2023-08-24T05:39:54.709Z,13.27
2023-08-24T05:42:21.826Z,21.42
2023-08-24T05:44:49.239Z,13.43
2023-08-24T05:47:16.353Z,11.07
2023-08-24T05:49:48.327Z,10.93
2023-08-24T05:52:17.664Z,11.88
2023-08-24T05:54:47.518Z,11.90
2023-08-24T05:57:19.790Z,12.38
2023-08-24T05:59:49.592Z,16.23
2023-08-24T06:02:19.848Z,11.18
2023-08-24T06:04:49.610Z,14.32
2023-08-24T06:07:17.646Z,14.20
2023-08-24T06:09:47.632Z,13.88
2023-08-24T06:12:14.762Z,14.88
2023-08-24T06:14:45.363Z,14.70
2023-08-24T06:17:12.509Z,12.35
2023-08-24T06:19:39.938Z,9.38
2023-08-24T06:22:07.089Z,10.43
2023-08-24T06:24:34.600Z,10.10
2023-08-24T06:27:01.700Z,9.18
2023-08-24T06:29:30.279Z,8.77
2023-08-24T06:31:57.718Z,10.75
2023-08-24T06:34:25.171Z,7.18
2023-08-24T06:36:54.419Z,8.50
2023-08-24T06:39:24.148Z,6.97
2023-08-24T06:41:53.527Z,7.25
2023-08-24T06:44:21.073Z,8.07
2023-08-24T06:46:48.212Z,6.07
2023-08-24T06:49:15.670Z,6.82
2023-08-24T06:51:45.262Z,7.85
2023-08-24T06:54:15.236Z,6.53
2023-08-24T06:56:44.846Z,6.55
2023-08-24T06:59:12.470Z,5.20
2023-08-24T07:01:39.797Z,8.20
2023-08-24T07:04:07.348Z,5.15
2023-08-24T07:06:35.306Z,7.20
2023-08-24T07:09:02.845Z,4.15
2023-08-24T07:11:29.962Z,4.57
2023-08-24T07:13:59.562Z,4.22
2023-08-24T07:16:35.149Z,5.03
2023-08-24T07:19:02.595Z,7.00
2023-08-24T07:21:32.166Z,5.28
2023-08-24T07:24:02.238Z,3.10
2023-08-24T07:26:29.415Z,3.38
2023-08-24T07:28:59.266Z,4.60
2023-08-24T07:31:26.777Z,6.53
2023-08-24T07:33:56.572Z,6.60
2023-08-24T07:36:23.857Z,6.82
2023-08-24T07:38:51.370Z,6.07
2023-08-24T07:41:18.561Z,6.22
2023-08-24T07:43:48.566Z,4.85
2023-08-24T07:46:17.885Z,7.47
2023-08-24T07:48:47.784Z,7.18
2023-08-24T07:51:14.931Z,6.53
2023-08-24T07:53:42.323Z,5.07
2023-08-24T07:56:16.988Z,8.23
2023-08-24T07:58:44.534Z,7.35
2023-08-24T08:01:14.537Z,5.10
2023-08-24T08:03:44.275Z,7.57
2023-08-24T08:06:11.460Z,5.00
2023-08-24T08:08:38.933Z,7.25
2023-08-24T08:11:06.171Z,7.80
2023-08-24T08:13:33.561Z,8.32
2023-08-24T08:16:08.275Z,8.35
2023-08-24T08:18:37.158Z,10.35
2023-08-24T08:21:19.736Z,7.43
2023-08-24T08:23:49.290Z,7.45
2023-08-24T08:26:17.745Z,6.32
2023-08-24T08:28:47.614Z,7.55
2023-08-24T08:31:21.091Z,10.93
2023-08-24T08:33:52.427Z,7.80
2023-08-24T08:36:24.070Z,6.30
2023-08-24T08:38:51.514Z,14.38
2023-08-24T08:41:22.461Z,6.80
2023-08-24T08:43:50.261Z,5.57
2023-08-24T08:46:17.539Z,7.22
2023-08-24T08:48:49.942Z,5.68
2023-08-24T08:51:18.372Z,7.55
2023-08-24T08:53:45.850Z,5.35
2023-08-24T08:56:15.539Z,7.78
2023-08-24T08:58:45.184Z,5.00
2023-08-24T09:01:15.511Z,8.32
2023-08-24T09:03:44.048Z,7.78
2023-08-24T09:06:13.697Z,7.82
2023-08-24T09:08:41.242Z,6.88
2023-08-24T09:11:09.490Z,6.30
2023-08-24T09:13:37.171Z,7.20
2023-08-24T09:16:07.215Z,7.20
2023-08-24T09:18:39.375Z,5.13
2023-08-24T09:21:11.782Z,6.10
2023-08-24T09:23:52.995Z,6.90
2023-08-24T09:26:30.302Z,6.68
2023-08-24T09:28:58.574Z,8.82
2023-08-24T09:31:38.947Z,5.28
2023-08-24T09:34:06.994Z,7.72
2023-08-24T09:36:39.552Z,7.53
2023-08-24T09:39:07.360Z,6.18
2023-08-24T09:41:48.194Z,6.93
2023-08-24T09:44:17.987Z,8.65
2023-08-24T09:46:45.388Z,8.65
2023-08-24T09:49:14.872Z,10.23
2023-08-24T09:51:45.461Z,5.78
2023-08-24T09:54:13.103Z,5.97
2023-08-24T09:56:43.821Z,6.68
2023-08-24T09:59:16.234Z,6.25
2023-08-24T10:01:44.854Z,6.15
2023-08-24T10:04:34.852Z,8.48
2023-08-24T10:07:09.591Z,7.07
2023-08-24T10:09:43.644Z,9.85
2023-08-24T10:12:12.170Z,7.50
2023-08-24T10:14:56.030Z,9.90
2023-08-24T10:17:27.288Z,9.40
2023-08-24T10:19:59.184Z,6.43
2023-08-24T10:22:26.483Z,8.73
2023-08-24T10:25:01.068Z,7.53
2023-08-24T10:27:29.963Z,6.57
2023-08-24T10:30:00.392Z,10.10
2023-08-24T10:32:28.780Z,6.93
2023-08-24T10:34:56.387Z,7.15
2023-08-24T10:37:29.261Z,6.63
2023-08-24T10:39:57.020Z,8.02
2023-08-24T10:42:26.494Z,8.85
2023-08-24T10:44:54.130Z,8.23
2023-08-24T10:47:22.506Z,7.28
2023-08-24T10:49:56.102Z,8.77
2023-08-24T10:52:44.974Z,7.15
2023-08-24T10:55:26.794Z,6.82
2023-08-24T10:58:00.875Z,10.25
2023-08-24T11:00:30.203Z,8.45
2023-08-24T11:03:00.884Z,8.27
2023-08-24T11:05:31.072Z,7.57
2023-08-24T11:08:08.097Z,7.72
2023-08-24T11:10:44.658Z,7.28
2023-08-24T11:13:13.301Z,7.85
2023-08-24T11:15:51.953Z,6.95
2023-08-24T11:18:28.363Z,8.05
2023-08-24T11:20:56.957Z,8.02
2023-08-24T11:23:25.355Z,6.88
2023-08-24T11:25:56.838Z,7.57
2023-08-24T11:28:25.620Z,7.13
2023-08-24T11:30:53.786Z,6.15
2023-08-24T11:33:34.998Z,6.85
2023-08-24T11:36:05.048Z,9.57
2023-08-24T11:38:43.615Z,7.95
2023-08-24T11:41:15.132Z,6.45
2023-08-24T11:43:43.657Z,7.50
2023-08-24T11:46:18.478Z,5.80
2023-08-24T11:48:51.059Z,8.43
2023-08-24T11:51:26.258Z,7.45
2023-08-24T11:54:03.548Z,7.65
2023-08-24T11:56:30.932Z,6.72
2023-08-24T11:58:58.106Z,7.60
2023-08-24T12:01:26.120Z,7.88
2023-08-24T12:03:53.740Z,6.30
2023-08-24T12:06:21.259Z,10.30
2023-08-24T12:08:48.842Z,7.97
2023-08-24T12:11:21.049Z,8.63
2023-08-24T12:13:50.685Z,8.50
2023-08-24T12:16:22.202Z,6.35
2023-08-24T12:18:52.067Z,8.90
2023-08-24T12:21:19.836Z,7.70
2023-08-24T12:24:00.124Z,10.02
2023-08-24T12:26:29.905Z,8.90
2023-08-24T12:29:01.607Z,8.35
2023-08-24T12:31:32.415Z,6.95
2023-08-24T12:34:09.573Z,8.70
2023-08-24T12:36:40.098Z,8.02
2023-08-24T12:39:07.591Z,9.85
2023-08-24T12:41:35.104Z,13.63
2023-08-24T12:44:02.330Z,9.30
2023-08-24T12:46:29.961Z,8.50
2023-08-24T12:48:59.738Z,11.93
2023-08-24T12:51:29.507Z,11.32
2023-08-24T12:53:59.137Z,10.68
2023-08-24T12:56:26.824Z,10.30
2023-08-24T12:58:53.963Z,10.25
2023-08-24T13:01:21.463Z,9.05
2023-08-24T13:03:48.756Z,9.82
2023-08-24T13:06:24.294Z,16.05
2023-08-24T13:08:56.406Z,9.85
2023-08-24T13:11:28.805Z,7.80
2023-08-24T13:13:55.886Z,8.40
2023-08-24T13:16:27.850Z,10.70
2023-08-24T13:18:57.088Z,5.97
2023-08-24T13:21:26.138Z,8.52
2023-08-24T13:23:55.809Z,7.15
2023-08-24T13:26:23.874Z,8.88
2023-08-24T13:28:53.433Z,8.02
2023-08-24T13:31:21.016Z,13.82
2023-08-24T13:33:48.202Z,12.27
2023-08-24T13:36:17.986Z,9.63
2023-08-24T13:38:45.541Z,9.43
2023-08-24T13:41:15.528Z,6.82
2023-08-24T13:43:42.638Z,10.75
2023-08-24T13:46:10.302Z,14.82
2023-08-24T13:48:39.772Z,8.52
2023-08-24T13:51:09.658Z,10.55
2023-08-24T13:53:37.015Z,9.52
2023-08-24T13:56:04.808Z,7.43
2023-08-24T13:58:32.132Z,10.88
2023-08-24T14:01:06.789Z,9.25
2023-08-24T14:03:36.441Z,8.20
2023-08-24T14:06:04.150Z,7.82
2023-08-24T14:08:31.326Z,10.38
2023-08-24T14:10:58.717Z,9.65
2023-08-24T14:13:25.866Z,8.23
2023-08-24T14:15:53.706Z,11.75
2023-08-24T14:18:21.511Z,6.95
2023-08-24T14:20:50.021Z,8.27
2023-08-24T14:23:19.745Z,7.18
2023-08-24T14:25:47.959Z,9.63
2023-08-24T14:28:20.209Z,8.52
2023-08-24T14:33:14.885Z,6.05
2023-08-24T14:35:42.314Z,8.70
2023-08-24T14:38:09.517Z,11.45
2023-08-24T14:40:41.588Z,9.68
2023-08-24T14:43:08.630Z,9.67
2023-08-24T14:45:38.694Z,8.35
2023-08-24T14:48:06.396Z,7.93
2023-08-24T14:50:33.897Z,7.53
2023-08-24T14:53:03.310Z,9.55
2023-08-24T14:55:30.747Z,10.82
2023-08-24T14:57:57.899Z,6.50
2023-08-24T15:00:25.406Z,7.78
2023-08-24T15:02:52.624Z,8.52
2023-08-24T15:05:21.604Z,7.65
2023-08-24T15:07:51.486Z,7.75
2023-08-24T15:10:21.500Z,5.10
2023-08-24T15:12:54.749Z,7.68
2023-08-24T15:15:22.277Z,6.10
2023-08-24T15:17:50.621Z,7.00
2023-08-24T15:20:18.950Z,9.23
2023-08-24T15:22:49.070Z,7.10
2023-08-24T15:25:16.500Z,10.27
2023-08-24T15:27:46.103Z,8.43
2023-08-24T15:30:13.931Z,11.52
2023-08-24T15:32:45.649Z,9.00
2023-08-24T15:35:13.118Z,12.65
2023-08-24T15:37:43.051Z,7.85
2023-08-24T15:40:11.399Z,10.23
2023-08-24T15:42:38.527Z,10.00
2023-08-24T15:45:06.352Z,10.90
2023-08-24T15:47:33.513Z,8.75
2023-08-24T15:50:03.484Z,8.40
2023-08-24T15:52:30.839Z,6.90
2023-08-24T15:55:00.758Z,9.05
2023-08-24T15:57:30.119Z,8.80
2023-08-24T15:59:57.648Z,9.75
2023-08-24T16:02:24.729Z,7.47
2023-08-24T16:04:56.725Z,10.18
2023-08-24T16:07:24.169Z,6.93
2023-08-24T16:09:51.540Z,9.93
2023-08-24T16:12:20.897Z,8.10
2023-08-24T16:14:48.343Z,10.52
2023-08-24T16:17:15.487Z,11.30
2023-08-24T16:19:45.564Z,7.25
2023-08-24T16:22:12.728Z,10.02
2023-08-24T16:24:40.083Z,10.65
2023-08-24T16:27:07.322Z,10.57
2023-08-24T16:29:34.821Z,8.73
2023-08-24T16:32:01.956Z,12.10
2023-08-24T16:34:29.472Z,12.18
2023-08-24T16:36:59.618Z,12.63
2023-08-24T16:39:30.796Z,13.50
2023-08-24T16:41:58.014Z,10.30
2023-08-24T16:44:25.440Z,11.95
2023-08-24T16:46:54.824Z,9.65
2023-08-24T16:49:24.445Z,12.57
2023-08-24T16:51:51.613Z,12.13
2023-08-24T16:54:22.166Z,12.07
2023-08-24T16:56:49.427Z,10.85
2023-08-24T16:59:16.828Z,9.48
2023-08-24T17:01:43.946Z,10.18
2023-08-24T17:04:11.429Z,8.52
2023-08-24T17:06:39.738Z,10.95
2023-08-24T17:09:09.562Z,8.23
2023-08-24T17:11:36.661Z,12.05
2023-08-24T17:14:04.128Z,13.07
2023-08-24T17:16:33.483Z,8.85
2023-08-24T17:19:03.584Z,10.70
2023-08-24T17:21:33.199Z,8.50
2023-08-24T17:24:00.577Z,8.77
2023-08-24T17:26:27.760Z,21.80
2023-08-24T17:28:55.177Z,23.50
2023-08-24T17:31:22.385Z,18.50
2023-08-24T17:33:52.439Z,10.63
2023-08-24T17:36:19.496Z,16.08
2023-08-24T17:38:59.319Z,10.65
2023-08-24T17:41:37.625Z,12.05
2023-08-24T17:44:05.664Z,15.73
2023-08-24T17:46:36.469Z,17.50
2023-08-24T17:49:03.912Z,11.07
2023-08-24T17:51:31.107Z,12.23
2023-08-24T17:53:58.626Z,15.98
2023-08-24T17:56:26.088Z,12.07
2023-08-24T17:58:57.934Z,14.70
2023-08-24T18:01:25.439Z,15.35
2023-08-24T18:03:52.882Z,13.25
2023-08-24T18:06:20.071Z,11.57
2023-08-24T18:08:51.764Z,14.38
2023-08-24T18:11:19.894Z,14.67
2023-08-24T18:13:47.374Z,12.23
2023-08-24T18:16:14.635Z,14.55
2023-08-24T18:18:42.955Z,12.20
2023-08-24T18:21:10.329Z,16.65
2023-08-24T18:23:40.002Z,15.27
2023-08-24T18:26:07.136Z,14.63
2023-08-24T18:28:34.600Z,13.23
2023-08-24T18:31:01.691Z,10.68
2023-08-24T18:33:29.170Z,12.57
2023-08-24T18:35:56.573Z,10.85
2023-08-24T18:38:24.880Z,13.40
2023-08-24T18:40:55.418Z,14.80
2023-08-24T18:43:23.462Z,13.77
2023-08-24T18:46:05.109Z,17.30
2023-08-24T18:48:32.975Z,14.75
2023-08-24T18:51:00.343Z,13.85
2023-08-24T18:53:32.544Z,14.02
2023-08-24T18:56:05.862Z,13.57
2023-08-24T18:58:50.121Z,14.70
2023-08-24T19:01:17.435Z,12.95
2023-08-24T19:03:45.129Z,14.52
2023-08-24T19:06:24.253Z,13.77
2023-08-24T19:08:55.010Z,16.20
2023-08-24T19:11:22.273Z,12.65
2023-08-24T19:13:49.885Z,17.73
2023-08-24T19:16:19.489Z,11.82
2023-08-24T19:18:49.670Z,14.25
2023-08-24T19:21:16.770Z,13.48
2023-08-24T19:23:44.388Z,22.58
2023-08-24T19:26:11.702Z,15.07
2023-08-24T19:28:41.324Z,18.83
2023-08-24T19:31:15.061Z,14.32
2023-08-24T19:33:42.650Z,13.50
2023-08-24T19:36:11.946Z,14.45
2023-08-24T19:38:39.407Z,22.60
2023-08-24T19:41:06.540Z,17.27
2023-08-24T19:43:34.085Z,18.05
2023-08-24T19:46:03.476Z,13.90
2023-08-24T19:48:33.400Z,15.60
2023-08-24T19:51:02.726Z,11.85
2023-08-24T19:53:32.396Z,12.05
2023-08-24T19:55:59.542Z,16.45
2023-08-24T19:58:29.592Z,14.73
2023-08-24T20:00:57.137Z,15.50
2023-08-24T20:03:24.796Z,14.10
2023-08-24T20:05:55.655Z,15.98
2023-08-24T20:08:24.348Z,14.07
2023-08-24T20:10:51.900Z,51.50
2023-08-24T20:13:19.508Z,27.48
2023-08-24T20:15:49.209Z,16.17
2023-08-24T20:18:19.611Z,16.23
2023-08-24T20:20:49.062Z,16.33
2023-08-24T20:23:18.750Z,15.80
2023-08-24T20:25:45.866Z,16.25
2023-08-24T20:28:13.488Z,16.67
2023-08-24T20:30:41.847Z,19.48
2023-08-24T20:33:09.343Z,17.90
2023-08-24T20:35:39.017Z,19.83
2023-08-24T20:38:06.482Z,21.23
2023-08-24T20:40:35.894Z,19.80
2023-08-24T20:43:05.618Z,21.30
2023-08-24T20:45:32.804Z,22.52
2023-08-24T20:48:00.291Z,20.38
2023-08-24T20:50:27.566Z,15.38
2023-08-24T20:52:54.930Z,19.15
2023-08-24T20:55:22.033Z,17.25
2023-08-24T20:57:52.186Z,17.67
2023-08-24T21:00:19.697Z,14.95
2023-08-24T21:02:47.226Z,16.08
2023-08-24T21:05:17.097Z,17.85
2023-08-24T21:07:44.511Z,19.52
2023-08-24T21:10:24.019Z,16.40
2023-08-24T21:12:51.393Z,14.80
2023-08-24T21:15:18.494Z,15.45
2023-08-24T21:17:48.515Z,15.40
2023-08-24T21:20:18.127Z,13.98
2023-08-24T21:22:46.455Z,20.27
2023-08-24T21:25:17.547Z,17.95
2023-08-24T21:27:44.894Z,16.10
2023-08-24T21:30:12.482Z,18.38
2023-08-24T21:33:01.368Z,19.48
2023-08-24T21:35:28.775Z,12.85
2023-08-24T21:37:56.449Z,14.02
2023-08-24T21:40:23.771Z,15.18
2023-08-24T21:42:51.243Z,12.73
2023-08-24T21:45:18.568Z,11.13
2023-08-24T21:47:46.173Z,14.30
2023-08-24T21:50:15.784Z,13.80
2023-08-24T21:52:45.455Z,11.93
2023-08-24T21:55:14.955Z,12.05
2023-08-24T21:57:44.931Z,11.50
2023-08-24T22:00:14.829Z,9.95
2023-08-24T22:02:44.919Z,13.95
2023-08-24T22:05:15.365Z,12.50
2023-08-24T22:07:42.880Z,12.82
2023-08-24T22:10:10.369Z,17.00
2023-08-24T22:12:37.535Z,12.40
2023-08-24T22:15:05.508Z,13.82
2023-08-24T22:17:32.690Z,17.25
2023-08-24T22:20:02.859Z,15.52
2023-08-24T22:22:30.336Z,17.35
2023-08-24T22:24:57.719Z,16.02
2023-08-24T22:27:24.844Z,18.75
2023-08-24T22:29:52.337Z,20.55
2023-08-24T22:32:19.488Z,13.77
2023-08-24T22:34:46.860Z,16.98
2023-08-24T22:37:16.636Z,15.65
2023-08-24T22:39:44.020Z,13.35
2023-08-24T22:42:13.399Z,16.25
2023-08-24T22:44:40.914Z,17.25
2023-08-24T22:47:08.056Z,14.85
2023-08-24T22:49:35.429Z,16.40
2023-08-24T22:52:05.038Z,13.07
2023-08-24T22:54:35.677Z,14.40
2023-08-24T22:57:02.831Z,16.85
2023-08-24T22:59:34.707Z,13.98
2023-08-24T23:02:06.325Z,15.07
2023-08-24T23:04:36.318Z,16.55
2023-08-24T23:07:07.074Z,14.07
2023-08-24T23:09:39.873Z,15.40
2023-08-24T23:12:07.226Z,16.27
2023-08-24T23:14:34.633Z,13.93
2023-08-24T23:17:02.516Z,16.13
2023-08-24T23:19:32.537Z,15.38
2023-08-24T23:21:59.618Z,15.70
2023-08-24T23:26:57.167Z,13.85
2023-08-24T23:29:24.736Z,16.40
2023-08-24T23:31:54.418Z,16.55
2023-08-24T23:34:21.846Z,18.35
2023-08-24T23:36:49.053Z,18.15
2023-08-24T23:39:18.911Z,17.67
2023-08-24T23:41:46.110Z,15.80
2023-08-24T23:44:13.483Z,15.80
2023-08-24T23:46:42.868Z,14.57
2023-08-24T23:49:10.272Z,14.75
2023-08-24T23:51:39.638Z,12.90
2023-08-24T23:54:15.107Z,11.48
2023-08-24T23:56:44.850Z,11.45
2023-08-24T23:59:21.250Z,10.82
